Time;durP1;ratioP1;P1;durP2;ratioP2;P2;SDS_P1;SDS_P2;PMS_P1;PMS_P2;Temp;Humidity;BMP_temperature;BMP_pressure;BME280_temperature;BME280_humidity;BME280_pressure;Samples;Min_cycle;Max_cycle;Signal;HPM_P1;HPM_P2
2023/10/29 00:01:09;;;;;;;6.18;4.40;;;;;;;11.37;100.00;99003.94;5065681;28;20020;-86
2023/10/29 00:03:35;;;;;;;5.28;4.18;;;;;;;11.38;100.00;98985.13;5080686;28;20029;-86
2023/10/29 00:06:00;;;;;;;5.82;4.85;;;;;;;11.41;100.00;98984.28;5062764;28;20062;-86
2023/10/29 00:08:25;;;;;;;6.28;3.97;;;;;;;11.42;100.00;98983.03;5082827;28;20028;-86
2023/10/29 00:10:51;;;;;;;5.45;4.15;;;;;;;11.42;100.00;98977.44;5060642;28;20028;-86
2023/10/29 00:13:16;;;;;;;4.55;3.92;;;;;;;11.47;100.00;98970.53;5061179;28;20028;-86
2023/10/29 00:15:41;;;;;;;7.35;4.80;;;;;;;11.51;100.00;98968.44;5067963;28;20040;-87
2023/10/29 00:18:12;;;;;;;6.25;4.25;;;;;;;11.38;100.00;98951.50;5083917;28;20417;-86
2023/10/29 00:20:38;;;;;;;8.48;4.05;;;;;;;11.40;100.00;98954.66;5066096;28;20031;-86
2023/10/29 00:23:04;;;;;;;7.28;3.88;;;;;;;11.46;100.00;98961.34;5069372;28;20071;-86
2023/10/29 00:25:29;;;;;;;4.63;3.80;;;;;;;11.44;100.00;98958.19;5084790;28;20063;-86
2023/10/29 00:27:55;;;;;;;3.58;2.92;;;;;;;11.51;100.00;98948.84;5091302;28;20142;-87
2023/10/29 00:30:20;;;;;;;3.92;3.25;;;;;;;11.54;100.00;98945.97;5067803;28;20024;-86
2023/10/29 00:32:46;;;;;;;6.18;3.03;;;;;;;11.59;100.00;98937.09;5088698;28;20024;-86
2023/10/29 00:35:11;;;;;;;4.88;3.63;;;;;;;11.57;100.00;98939.53;5066272;28;20181;-86
2023/10/29 00:37:37;;;;;;;5.05;2.92;;;;;;;11.58;100.00;98924.28;5062126;28;20042;-87
2023/10/29 00:40:04;;;;;;;5.47;3.20;;;;;;;11.48;100.00;98902.09;5082678;28;20552;-86
2023/10/29 00:42:29;;;;;;;6.07;3.30;;;;;;;11.60;100.00;98916.22;5065822;28;20406;-87
2023/10/29 00:44:54;;;;;;;2.80;2.55;;;;;;;11.60;100.00;98893.03;5085660;28;20092;-86
2023/10/29 00:47:20;;;;;;;4.03;3.00;;;;;;;11.58;100.00;98887.84;5070295;28;20110;-87
2023/10/29 00:49:45;;;;;;;3.42;2.40;;;;;;;11.63;100.00;98885.75;5063328;28;20188;-86
2023/10/29 00:52:13;;;;;;;2.45;2.20;;;;;;;11.70;100.00;98880.00;5090990;28;20035;-88
2023/10/29 00:54:39;;;;;;;5.47;2.30;;;;;;;11.72;100.00;98902.75;5082119;28;20032;-87
2023/10/29 00:57:06;;;;;;;3.78;2.65;;;;;;;11.75;100.00;98871.88;5086346;28;20024;-86
2023/10/29 00:59:34;;;;;;;4.20;2.63;;;;;;;11.74;100.00;98886.31;5069077;28;20034;-86
2023/10/29 01:02:01;;;;;;;4.93;2.78;;;;;;;11.78;100.00;98898.22;5084282;28;20035;-87
2023/10/29 01:04:27;;;;;;;4.40;2.47;;;;;;;11.77;100.00;98888.25;5061425;28;20075;-87
2023/10/29 01:06:52;;;;;;;5.35;2.60;;;;;;;11.77;100.00;98875.03;5089389;28;20078;-86
2023/10/29 01:09:18;;;;;;;5.53;2.80;;;;;;;11.77;100.00;98869.41;5073332;28;20032;-87
2023/10/29 01:11:43;;;;;;;6.80;2.38;;;;;;;11.78;100.00;98853.38;5067165;28;20085;-87
2023/10/29 01:14:10;;;;;;;6.03;1.88;;;;;;;11.74;100.00;98844.25;5071561;28;20174;-87
2023/10/29 01:16:35;;;;;;;2.95;2.20;;;;;;;11.84;100.00;98834.81;5060598;28;20032;-86
2023/10/29 01:19:01;;;;;;;5.05;2.63;;;;;;;11.81;100.00;98835.72;5069967;28;20518;-86
2023/10/29 01:21:27;;;;;;;4.25;1.85;;;;;;;11.87;100.00;98845.19;5068864;28;20028;-87
2023/10/29 01:23:53;;;;;;;6.47;2.22;;;;;;;11.92;100.00;98858.69;5069727;28;20021;-87
2023/10/29 01:26:18;;;;;;;3.60;1.85;;;;;;;11.88;100.00;98831.94;5067357;28;20509;-88
2023/10/29 01:28:44;;;;;;;2.80;2.00;;;;;;;11.97;100.00;98826.53;5081725;28;20039;-87
2023/10/29 01:31:10;;;;;;;5.00;1.85;;;;;;;11.88;100.00;98813.13;5068966;28;20024;-88
2023/10/29 01:33:37;;;;;;;2.50;1.63;;;;;;;11.91;100.00;98820.69;5067009;28;20036;-88
2023/10/29 01:36:03;;;;;;;2.90;1.40;;;;;;;11.90;100.00;98821.91;5088129;28;20031;-88
2023/10/29 01:38:28;;;;;;;5.07;1.77;;;;;;;11.95;100.00;98829.81;5085436;28;20040;-88
2023/10/29 01:40:54;;;;;;;4.45;1.48;;;;;;;11.89;100.00;98811.91;5087098;28;20440;-88
2023/10/29 01:43:19;;;;;;;6.03;1.70;;;;;;;11.99;100.00;98818.47;5089456;28;20024;-88
2023/10/29 01:45:44;;;;;;;3.67;2.55;;;;;;;11.99;100.00;98812.88;5071844;28;20042;-88
2023/10/29 01:48:10;;;;;;;2.42;1.60;;;;;;;11.93;100.00;98807.00;5065947;28;20062;-88
2023/10/29 01:50:37;;;;;;;3.83;1.23;;;;;;;11.92;100.00;98816.63;5084596;28;20054;-88
2023/10/29 01:53:02;;;;;;;5.80;1.98;;;;;;;11.97;100.00;98801.31;5069076;28;20020;-88
2023/10/29 01:55:27;;;;;;;4.57;1.42;;;;;;;11.96;100.00;98792.09;5087942;28;20085;-88
2023/10/29 01:57:53;;;;;;;1.52;1.23;;;;;;;11.92;100.00;98773.81;5083773;28;20036;-88
2023/10/29 02:00:19;;;;;;;3.05;1.55;;;;;;;11.98;100.00;98786.84;5068210;28;20025;-89
2023/10/29 02:02:49;;;;;;;2.00;1.10;;;;;;;12.06;100.00;98797.88;5083378;28;20051;-88
2023/10/29 02:05:15;;;;;;;9.40;2.53;;;;;;;12.03;100.00;98773.53;5074778;28;20491;-88
2023/10/29 02:07:40;;;;;;;2.65;1.25;;;;;;;12.07;100.00;98777.03;5061746;28;20038;-88
2023/10/29 02:10:06;;;;;;;2.95;0.80;;;;;;;12.10;100.00;98778.94;5065172;28;20028;-88
2023/10/29 02:12:31;;;;;;;5.10;1.80;;;;;;;12.07;100.00;98769.41;5068673;28;20035;-89
2023/10/29 02:14:57;;;;;;;1.70;1.05;;;;;;;12.05;100.00;98760.66;5065455;28;20059;-89
2023/10/29 02:17:25;;;;;;;1.55;0.93;;;;;;;12.02;100.00;98755.13;5065654;28;20048;-88
2023/10/29 02:19:51;;;;;;;1.20;1.10;;;;;;;12.04;100.00;98753.47;5061415;28;20051;-89
2023/10/29 02:22:16;;;;;;;1.48;1.05;;;;;;;12.07;100.00;98763.00;5071801;28;20052;-88
2023/10/29 02:24:42;;;;;;;5.80;1.38;;;;;;;12.10;100.00;98762.13;5068220;28;20048;-88
2023/10/29 02:27:07;;;;;;;1.77;1.00;;;;;;;11.95;100.00;98722.44;5068663;28;20048;-89
2023/10/29 02:29:35;;;;;;;2.60;1.40;;;;;;;11.99;100.00;98718.34;5063225;28;20073;-89
2023/10/29 02:32:00;;;;;;;4.65;1.33;;;;;;;12.05;100.00;98737.44;5071877;28;20089;-89
2023/10/29 02:34:26;;;;;;;3.38;1.05;;;;;;;11.93;100.00;98736.94;5066886;28;20399;-90
2023/10/29 02:36:51;;;;;;;1.67;1.58;;;;;;;12.08;100.00;98753.34;5085771;28;20032;-89
2023/10/29 02:39:16;;;;;;;1.90;1.20;;;;;;;11.99;100.00;98735.19;5067629;28;20102;-90
2023/10/29 02:41:42;;;;;;;1.55;1.10;;;;;;;12.06;100.00;98742.59;5069987;28;20031;-89
2023/10/29 02:44:07;;;;;;;1.10;0.90;;;;;;;12.15;100.00;98739.16;5069922;28;20014;-90
2023/10/29 02:46:36;;;;;;;1.25;0.90;;;;;;;12.16;100.00;98743.53;5067896;28;20032;-90
2023/10/29 02:49:02;;;;;;;1.65;1.00;;;;;;;12.01;100.00;98726.31;5087169;28;20131;-90
2023/10/29 02:51:27;;;;;;;1.38;1.05;;;;;;;12.06;100.00;98722.16;5062217;28;20119;-91
2023/10/29 02:53:55;;;;;;;3.25;1.15;;;;;;;12.12;100.00;98738.03;5087284;28;20477;-90
2023/10/29 02:56:21;;;;;;;1.52;1.00;;;;;;;12.18;100.00;98741.09;5084627;28;20028;-89
2023/10/29 02:58:46;;;;;;;2.08;0.98;;;;;;;12.08;100.00;98719.72;5051016;28;20073;-90
2023/10/29 03:01:15;;;;;;;1.90;1.30;;;;;;;12.21;100.00;98734.59;5070819;28;20032;-91
2023/10/29 03:03:41;;;;;;;4.45;1.20;;;;;;;12.26;100.00;98736.84;5089146;28;20070;-89
2023/10/29 03:06:08;;;;;;;2.45;1.10;;;;;;;12.17;100.00;98725.50;5062586;28;20031;-90
2023/10/29 03:08:34;;;;;;;3.92;1.70;;;;;;;12.17;100.00;98726.28;5052264;28;20394;-90
2023/10/29 03:10:59;;;;;;;1.30;1.20;;;;;;;12.16;100.00;98721.91;5085095;28;20064;-87
2023/10/29 03:13:25;;;;;;;1.98;1.17;;;;;;;12.12;100.00;98706.38;5065184;28;20029;-88
2023/10/29 03:15:51;;;;;;;5.07;1.48;;;;;;;12.18;100.00;98713.03;5064973;28;20024;-87
2023/10/29 03:18:16;;;;;;;2.28;1.10;;;;;;;12.10;100.00;98720.88;5082388;28;20059;-87
2023/10/29 03:20:42;;;;;;;1.38;1.25;;;;;;;12.16;100.00;98721.91;5069699;28;20029;-88
2023/10/29 03:23:08;;;;;;;1.40;0.85;;;;;;;12.14;100.00;98717.94;5085046;28;20027;-87
2023/10/29 03:25:33;;;;;;;1.95;1.25;;;;;;;12.08;100.00;98728.13;5063123;28;20038;-87
2023/10/29 03:27:59;;;;;;;1.02;0.93;;;;;;;12.03;100.00;98718.25;5063568;28;20024;-87
2023/10/29 03:30:24;;;;;;;2.67;2.00;;;;;;;12.16;100.00;98735.13;5080942;28;20028;-87
2023/10/29 03:32:50;;;;;;;2.92;1.00;;;;;;;12.19;100.00;98749.06;5057381;28;20094;-87
2023/10/29 03:35:15;;;;;;;2.70;0.88;;;;;;;12.21;100.00;98740.22;5061612;28;20028;-86
2023/10/29 03:37:41;;;;;;;1.45;1.00;;;;;;;12.07;100.00;98729.38;5064094;28;20486;-87
2023/10/29 03:40:08;;;;;;;4.90;1.20;;;;;;;12.21;100.00;98751.44;5063105;28;20024;-87
2023/10/29 03:42:34;;;;;;;2.40;1.27;;;;;;;12.25;100.00;98756.94;5063585;28;20410;-87
2023/10/29 03:44:59;;;;;;;2.28;1.20;;;;;;;12.24;100.00;98750.53;5056706;28;20031;-87
2023/10/29 03:47:25;;;;;;;1.88;0.80;;;;;;;12.19;100.00;98737.06;5060817;28;20052;-88
2023/10/29 03:49:51;;;;;;;1.40;1.00;;;;;;;12.25;100.00;98738.09;5060081;28;20027;-85
2023/10/29 03:52:18;;;;;;;2.58;2.00;;;;;;;12.19;100.00;98731.44;5059001;28;20032;-85
2023/10/29 03:54:44;;;;;;;2.20;1.23;;;;;;;12.22;100.00;98755.81;5059604;28;20406;-86
2023/10/29 03:57:10;;;;;;;1.75;1.45;;;;;;;12.26;100.00;98748.06;5064798;28;20033;-86
2023/10/29 03:59:36;;;;;;;1.88;0.90;;;;;;;12.16;100.00;98743.53;5068018;28;20016;-87
2023/10/29 04:02:01;;;;;;;1.50;0.90;;;;;;;12.18;100.00;98752.31;5074045;28;20032;-87
2023/10/29 04:04:26;;;;;;;3.00;1.00;;;;;;;12.27;100.00;98760.88;5087005;28;20418;-88
2023/10/29 04:06:52;;;;;;;2.33;0.85;;;;;;;12.15;100.00;98747.59;5084653;28;20114;-87
2023/10/29 04:09:17;;;;;;;1.35;0.75;;;;;;;12.25;100.00;98760.53;5081653;28;20036;-88
2023/10/29 04:11:43;;;;;;;1.20;0.85;;;;;;;12.24;100.00;98736.50;5066474;28;20103;-88
2023/10/29 04:14:09;;;;;;;5.88;2.15;;;;;;;12.27;100.00;98768.50;5087890;28;20052;-87
2023/10/29 04:16:34;;;;;;;2.03;1.05;;;;;;;12.19;100.00;98754.66;5066484;28;20030;-87
2023/10/29 04:19:00;;;;;;;1.65;0.93;;;;;;;12.14;100.00;98738.38;5063784;28;20140;-88
2023/10/29 04:21:26;;;;;;;1.60;1.10;;;;;;;12.26;100.00;98759.31;5065901;28;20114;-87
2023/10/29 04:23:51;;;;;;;1.83;1.00;;;;;;;12.16;100.00;98737.94;5064521;28;20024;-86
2023/10/29 04:26:16;;;;;;;1.48;1.17;;;;;;;12.20;100.00;98747.03;5083836;28;20024;-86
2023/10/29 04:28:42;;;;;;;3.45;1.27;;;;;;;12.25;100.00;98763.34;5087011;28;20582;-86
2023/10/29 04:31:07;;;;;;;2.03;0.93;;;;;;;12.16;100.00;98743.53;5064296;28;20446;-86
2023/10/29 04:33:32;;;;;;;3.50;0.98;;;;;;;12.17;100.00;98745.91;5069457;28;20459;-86
2023/10/29 04:35:58;;;;;;;3.40;1.10;;;;;;;12.25;100.00;98768.97;5088309;28;20036;-86
2023/10/29 04:38:24;;;;;;;1.52;1.10;;;;;;;12.19;100.00;98763.09;5073282;28;20359;-86
2023/10/29 04:40:50;;;;;;;2.80;1.10;;;;;;;12.22;100.00;98769.81;5079353;28;20111;-86
2023/10/29 04:43:16;;;;;;;2.10;0.70;;;;;;;12.19;100.00;98777.09;5082479;28;20027;-85
2023/10/29 04:45:41;;;;;;;1.70;1.08;;;;;;;12.25;100.00;98774.56;5086468;28;20389;-86
2023/10/29 04:48:06;;;;;;;2.22;0.80;;;;;;;12.27;100.00;98783.34;5062592;28;20027;-85
2023/10/29 04:50:32;;;;;;;1.52;0.80;;;;;;;12.34;100.00;98780.31;5063599;28;20631;-85
2023/10/29 04:52:57;;;;;;;3.95;1.10;;;;;;;12.34;100.00;98782.34;5084098;28;20109;-85
2023/10/29 04:55:23;;;;;;;4.15;0.98;;;;;;;12.37;100.00;98787.06;5083064;28;20031;-85
2023/10/29 04:57:49;;;;;;;2.75;0.82;;;;;;;12.36;100.00;98779.91;5064403;28;20482;-85
2023/10/29 05:00:14;;;;;;;2.15;1.75;;;;;;;12.34;100.00;98773.94;5065868;28;20135;-85
2023/10/29 05:02:40;;;;;;;1.40;0.95;;;;;;;12.33;100.00;98763.94;5087320;28;20077;-85
2023/10/29 05:05:06;;;;;;;1.15;0.68;;;;;;;12.29;100.00;98772.47;5063850;28;20036;-85
2023/10/29 05:07:33;;;;;;;0.68;0.60;;;;;;;12.28;100.00;98773.66;5064306;28;20473;-85
2023/10/29 05:09:59;;;;;;;1.13;0.75;;;;;;;12.26;100.00;98780.97;5083791;28;20110;-85
2023/10/29 05:12:24;;;;;;;1.45;0.90;;;;;;;12.14;100.00;98749.59;5078795;28;20122;-86
2023/10/29 05:14:51;;;;;;;6.40;1.10;;;;;;;12.24;100.00;98758.16;5063185;28;20051;-88
2023/10/29 05:17:17;;;;;;;2.08;0.80;;;;;;;12.30;100.00;98760.00;5066734;28;20045;-90
2023/10/29 05:19:44;;;;;;;2.33;1.60;;;;;;;12.30;100.00;98753.59;5070953;28;20033;-90
2023/10/29 05:22:09;;;;;;;0.80;0.80;;;;;;;12.30;100.00;98759.22;5085289;28;20413;-90
2023/10/29 05:24:34;;;;;;;1.40;0.80;;;;;;;12.31;100.00;98764.38;5064877;28;20061;-84
2023/10/29 05:27:00;;;;;;;5.03;0.93;;;;;;;12.34;100.00;98783.13;5063970;28;20028;-85
2023/10/29 05:29:27;;;;;;;3.40;0.90;;;;;;;12.36;100.00;98777.88;5084176;28;20040;-85
2023/10/29 05:31:52;;;;;;;1.85;1.10;;;;;;;12.36;100.00;98785.50;5065932;28;20023;-85
2023/10/29 05:34:17;;;;;;;2.10;0.73;;;;;;;12.33;100.00;98758.31;5064556;28;20033;-85
2023/10/29 05:36:43;;;;;;;7.10;1.38;;;;;;;12.31;100.00;98766.38;5082199;28;20043;-85
2023/10/29 05:39:09;;;;;;;2.78;1.00;;;;;;;12.27;100.00;98765.69;5063098;28;20061;-85
2023/10/29 05:41:35;;;;;;;3.42;0.82;;;;;;;12.32;100.00;98779.19;5065117;28;20039;-84
2023/10/29 05:44:00;;;;;;;5.90;0.90;;;;;;;12.24;100.00;98767.38;5066548;28;20028;-85
2023/10/29 05:46:26;;;;;;;0.73;0.63;;;;;;;12.24;100.00;98772.97;5053791;28;20480;-85
2023/10/29 05:48:51;;;;;;;5.55;1.30;;;;;;;12.22;100.00;98775.44;5059003;28;20024;-85
2023/10/29 05:51:18;;;;;;;1.15;0.70;;;;;;;12.26;100.00;98778.94;5058456;28;20036;-84
2023/10/29 05:53:44;;;;;;;1.55;0.85;;;;;;;12.14;100.00;98768.44;5084284;28;20501;-85
2023/10/29 05:56:10;;;;;;;2.95;0.70;;;;;;;12.23;100.00;98774.22;5067370;28;20048;-85
2023/10/29 05:58:35;;;;;;;0.60;0.60;;;;;;;12.20;100.00;98783.50;5084468;28;20031;-85
2023/10/29 06:01:01;;;;;;;0.88;0.52;;;;;;;12.23;100.00;98777.03;5065157;28;20481;-85
2023/10/29 06:03:27;;;;;;;1.63;0.70;;;;;;;12.18;100.00;98769.94;5061410;28;20048;-85
2023/10/29 06:05:54;;;;;;;2.67;0.63;;;;;;;12.23;100.00;98776.22;5062153;28;21476;-85
2023/10/29 06:08:21;;;;;;;1.90;0.85;;;;;;;12.20;100.00;98775.09;5065775;28;20036;-89
2023/10/29 06:10:47;;;;;;;5.00;0.63;;;;;;;12.20;100.00;98783.50;5083484;28;20024;-86
2023/10/29 06:13:13;;;;;;;2.72;0.80;;;;;;;12.15;100.00;98787.63;5064813;28;20105;-87
2023/10/29 06:15:39;;;;;;;1.48;0.68;;;;;;;12.06;100.00;98772.63;5081026;28;20030;-92
2023/10/29 06:18:06;;;;;;;2.50;1.05;;;;;;;12.14;100.00;98802.09;5089655;28;20436;-91
2023/10/29 06:20:32;;;;;;;1.90;0.68;;;;;;;12.15;100.00;98821.28;5072731;28;20389;-90
2023/10/29 06:22:57;;;;;;;3.58;0.90;;;;;;;12.10;100.00;98790.16;5081856;28;20034;-86
2023/10/29 06:25:22;;;;;;;2.08;0.68;;;;;;;12.20;100.00;98817.94;5061836;28;20052;-86
2023/10/29 06:27:48;;;;;;;3.95;0.80;;;;;;;12.13;100.00;98812.53;5061820;28;20066;-88
2023/10/29 06:30:14;;;;;;;4.53;1.23;;;;;;;12.17;100.00;98834.88;5069255;28;20089;-89
2023/10/29 06:32:41;;;;;;;2.50;1.65;;;;;;;12.06;100.00;98835.13;5071723;28;20073;-90
2023/10/29 06:35:07;;;;;;;3.28;1.60;;;;;;;12.10;100.00;98846.25;5080589;28;20389;-88
2023/10/29 06:37:32;;;;;;;2.13;0.90;;;;;;;12.06;100.00;98848.34;5069532;28;20085;-85
2023/10/29 06:39:57;;;;;;;3.67;1.48;;;;;;;12.25;100.00;98864.31;5068111;28;20035;-91
2023/10/29 06:42:23;;;;;;;4.18;0.85;;;;;;;12.23;100.00;98861.16;5067379;28;20388;-89
2023/10/29 06:44:48;;;;;;;0.80;0.70;;;;;;;12.13;100.00;98836.97;5063393;28;20027;-89
2023/10/29 06:47:14;;;;;;;4.55;0.80;;;;;;;12.13;100.00;98856.59;5062963;28;20028;-91
2023/10/29 06:49:40;;;;;;;3.58;1.15;;;;;;;12.18;100.00;98864.47;5066727;28;20077;-85
2023/10/29 06:52:06;;;;;;;1.88;1.23;;;;;;;12.21;100.00;98869.25;5066397;28;20024;-86
2023/10/29 06:54:32;;;;;;;1.02;0.93;;;;;;;12.11;100.00;98871.06;5063248;28;20043;-86
2023/10/29 06:56:57;;;;;;;1.10;0.65;;;;;;;12.13;100.00;98862.22;5066878;28;20059;-86
2023/10/29 06:59:23;;;;;;;1.88;0.60;;;;;;;12.18;100.00;98884.94;5065667;28;20024;-91
2023/10/29 07:01:50;;;;;;;2.67;0.90;;;;;;;12.09;100.00;98864.31;5065853;28;20066;-90
2023/10/29 07:04:16;;;;;;;3.63;1.00;;;;;;;12.11;100.00;98887.88;5086206;28;20023;-91
2023/10/29 07:06:41;;;;;;;1.67;0.98;;;;;;;12.11;100.00;98878.69;5060174;28;20037;-89
2023/10/29 07:09:06;;;;;;;3.33;0.80;;;;;;;12.03;100.00;98875.25;5085651;28;20031;-93
2023/10/29 07:11:32;;;;;;;2.10;0.80;;;;;;;12.08;100.00;98894.38;5074329;28;20028;-87
2023/10/29 07:13:57;;;;;;;4.50;1.00;;;;;;;11.98;100.00;98873.78;5086361;28;20063;-87
2023/10/29 07:16:23;;;;;;;1.38;0.60;;;;;;;12.04;100.00;98887.25;5070919;28;20032;-91
2023/10/29 07:18:49;;;;;;;3.63;0.80;;;;;;;12.06;100.00;98896.03;5070939;28;20130;-91
2023/10/29 07:21:14;;;;;;;5.22;0.95;;;;;;;11.98;100.00;98903.84;5068643;28;20032;-91
2023/10/29 07:23:40;;;;;;;4.03;1.13;;;;;;;12.00;100.00;98899.34;5067647;28;20020;-91
2023/10/29 07:26:06;;;;;;;1.70;0.82;;;;;;;12.06;100.00;98913.66;5063899;28;20539;-92
2023/10/29 07:28:31;;;;;;;2.47;0.75;;;;;;;11.99;100.00;98897.78;5066700;28;20028;-91
2023/10/29 07:30:57;;;;;;;1.02;0.77;;;;;;;11.90;100.00;98894.78;5069685;28;20031;-92
2023/10/29 07:33:22;;;;;;;3.20;1.25;;;;;;;11.95;100.00;98927.13;5065562;28;20397;-91
2023/10/29 07:35:48;;;;;;;1.98;1.13;;;;;;;12.04;100.00;98929.31;5054733;28;20043;-91
2023/10/29 07:38:13;;;;;;;3.35;0.60;;;;;;;12.05;100.00;98912.06;5067338;28;20055;-90
2023/10/29 07:40:39;;;;;;;6.78;1.00;;;;;;;11.97;100.00;98956.31;5064317;28;20031;-92
2023/10/29 07:43:04;;;;;;;3.03;0.80;;;;;;;12.08;100.00;98960.88;5089517;28;20035;-91
2023/10/29 07:45:31;;;;;;;3.80;0.80;;;;;;;12.08;100.00;98974.91;5072385;28;20081;-91
2023/10/29 07:47:56;;;;;;;1.67;0.80;;;;;;;12.10;100.00;98969.66;5072703;28;20039;-87
2023/10/29 07:50:22;;;;;;;7.05;0.90;;;;;;;12.07;100.00;98978.94;5066868;28;20371;-89
2023/10/29 07:52:47;;;;;;;3.08;0.82;;;;;;;12.06;100.00;98982.94;5060364;28;20437;-89
2023/10/29 07:55:13;;;;;;;2.78;1.00;;;;;;;12.00;100.00;98961.03;5069544;28;20031;-89
2023/10/29 07:57:38;;;;;;;2.60;1.15;;;;;;;12.18;100.00;98988.69;5066306;28;20380;-85
2023/10/29 08:00:07;;;;;;;1.58;0.90;;;;;;;12.12;100.00;98984.03;5065194;28;20035;-87
2023/10/29 08:02:32;;;;;;;3.97;0.93;;;;;;;12.17;100.00;98989.13;5068900;28;20027;-87
2023/10/29 08:04:58;;;;;;;4.93;1.17;;;;;;;12.16;100.00;98979.13;5087661;28;20634;-87
2023/10/29 08:07:23;;;;;;;1.45;0.85;;;;;;;12.19;100.00;98992.28;5065044;28;20082;-86
2023/10/29 08:09:48;;;;;;;2.75;0.90;;;;;;;12.20;100.00;98985.44;5083294;28;20032;-91
2023/10/29 08:12:14;;;;;;;1.42;0.73;;;;;;;12.22;100.00;99005.44;5069031;28;20127;-87
2023/10/29 08:14:47;;;;;;;3.22;1.23;;;;;;;12.11;100.00;99011.28;5079959;28;20028;-87
2023/10/29 08:17:17;;;;;;;1.98;1.02;;;;;;;12.25;100.00;99009.38;5066585;28;20572;-88
2023/10/29 08:19:42;;;;;;;3.28;0.90;;;;;;;12.23;100.00;99001.41;5070606;28;20525;-89
2023/10/29 08:22:08;;;;;;;1.40;0.70;;;;;;;12.73;100.00;99005.88;5073884;28;20048;-90
2023/10/29 08:24:33;;;;;;;4.63;0.85;;;;;;;12.48;100.00;99014.06;5085012;28;20169;-91
2023/10/29 08:26:59;;;;;;;3.38;1.30;;;;;;;12.31;100.00;98996.41;5066227;28;20025;-87
2023/10/29 08:29:24;;;;;;;5.88;1.00;;;;;;;12.41;100.00;99013.00;5065815;28;20043;-87
2023/10/29 08:31:50;;;;;;;4.00;1.45;;;;;;;12.24;100.00;99005.78;5063042;28;20032;-87
2023/10/29 08:34:15;;;;;;;3.67;1.00;;;;;;;12.26;100.00;99028.59;5066040;28;20032;-87
2023/10/29 08:36:40;;;;;;;0.77;0.63;;;;;;;12.34;100.00;99057.28;5065557;28;20035;-87
2023/10/29 08:39:06;;;;;;;3.90;0.82;;;;;;;12.29;100.00;99057.78;5061593;28;20031;-88
2023/10/29 08:41:31;;;;;;;4.47;1.13;;;;;;;12.38;100.00;99053.16;5088027;28;20032;-87
2023/10/29 08:43:57;;;;;;;2.10;1.08;;;;;;;12.43;100.00;99031.44;5086286;28;20032;-87
2023/10/29 08:46:22;;;;;;;3.00;0.80;;;;;;;12.41;100.00;99043.09;5064661;28;20035;-87
2023/10/29 08:48:47;;;;;;;1.40;0.90;;;;;;;12.36;100.00;99044.41;5070512;28;20303;-87
2023/10/29 08:51:14;;;;;;;4.85;1.83;;;;;;;12.43;100.00;99059.50;5070526;28;20085;-87
2023/10/29 08:53:40;;;;;;;4.95;1.45;;;;;;;12.43;100.00;99071.50;5069918;28;20028;-87
2023/10/29 08:56:05;;;;;;;3.72;0.98;;;;;;;12.43;100.00;99071.50;5066174;28;20401;-88
2023/10/29 08:58:31;;;;;;;2.47;0.95;;;;;;;12.41;100.00;99080.34;5075000;28;20024;-88
2023/10/29 09:00:57;;;;;;;1.85;0.93;;;;;;;12.41;100.00;99080.34;5070990;28;20096;-87
2023/10/29 09:03:23;;;;;;;2.30;1.05;;;;;;;12.51;100.00;99088.97;5069140;28;20024;-87
2023/10/29 09:05:50;;;;;;;7.13;2.05;;;;;;;12.51;100.00;99077.75;5073163;28;20035;-87
2023/10/29 09:08:15;;;;;;;3.10;1.02;;;;;;;12.47;100.00;99089.06;5064038;28;20036;-87
2023/10/29 09:10:42;;;;;;;3.97;1.40;;;;;;;12.36;100.00;99068.88;5067505;28;20028;-87
2023/10/29 09:13:09;;;;;;;5.38;1.42;;;;;;;12.55;100.00;99089.69;5071233;28;20028;-87
2023/10/29 09:15:34;;;;;;;2.72;1.20;;;;;;;12.59;100.00;99090.41;5072185;28;20023;-87
2023/10/29 09:17:59;;;;;;;3.92;1.60;;;;;;;12.57;100.00;99087.25;5071260;28;20492;-87
2023/10/29 09:20:25;;;;;;;4.30;1.83;;;;;;;12.63;100.00;99095.91;5068100;28;20036;-87
2023/10/29 09:22:50;;;;;;;9.57;2.22;;;;;;;12.70;100.00;99118.22;5067873;28;20114;-87
2023/10/29 09:25:15;;;;;;;5.25;1.38;;;;;;;12.69;100.00;99128.66;5063746;28;20064;-87
2023/10/29 09:27:41;;;;;;;6.22;1.33;;;;;;;12.68;100.00;99138.31;5087394;28;20482;-87
2023/10/29 09:30:07;;;;;;;3.95;1.45;;;;;;;12.76;100.00;99134.13;5062652;28;20094;-87
2023/10/29 09:32:35;;;;;;;4.85;1.42;;;;;;;12.69;100.00;99128.66;5061824;28;20115;-87
2023/10/29 09:35:00;;;;;;;5.85;1.50;;;;;;;12.88;100.00;99157.13;5079404;28;20067;-87
2023/10/29 09:37:26;;;;;;;4.57;1.80;;;;;;;12.85;100.00;99146.78;5059134;28;20083;-87
2023/10/29 09:39:51;;;;;;;8.13;1.92;;;;;;;12.82;100.00;99137.22;5084091;28;20024;-87
2023/10/29 09:42:19;;;;;;;5.03;1.25;;;;;;;12.84;100.00;99151.59;5081763;28;20127;-87
2023/10/29 09:44:49;;;;;;;4.95;2.03;;;;;;;12.79;100.00;99158.50;5065498;28;20034;-87
2023/10/29 09:47:18;;;;;;;6.10;1.60;;;;;;;12.77;100.00;99174.22;5064100;28;20032;-87
2023/10/29 09:49:44;;;;;;;5.40;1.85;;;;;;;12.77;100.00;99175.00;5058654;28;20054;-88
2023/10/29 09:52:10;;;;;;;4.90;1.85;;;;;;;12.66;100.00;99166.03;5085598;28;20362;-88
2023/10/29 09:54:40;;;;;;;2.22;1.67;;;;;;;12.74;100.00;99175.09;5064491;28;20080;-88
2023/10/29 09:57:06;;;;;;;7.55;1.50;;;;;;;12.66;100.00;99157.59;5062087;28;20020;-86
2023/10/29 09:59:32;;;;;;;10.27;1.45;;;;;;;12.64;100.00;99171.28;5058959;28;20060;-86
2023/10/29 10:01:58;;;;;;;4.68;1.80;;;;;;;12.47;100.00;99144.38;5067090;28;20062;-87
2023/10/29 10:04:23;;;;;;;3.60;1.50;;;;;;;12.64;100.00;99193.72;5064040;28;20107;-86
2023/10/29 10:06:50;;;;;;;7.00;1.58;;;;;;;12.56;100.00;99186.69;5079714;28;20023;-87
2023/10/29 10:09:15;;;;;;;8.98;2.67;;;;;;;12.65;100.00;99189.72;5060210;28;20089;-86
2023/10/29 10:11:41;;;;;;;7.90;2.50;;;;;;;12.69;100.00;99190.44;5066386;28;20031;-84
2023/10/29 10:14:06;;;;;;;4.22;1.55;;;;;;;12.83;100.00;99189.31;5084200;28;20063;-87
2023/10/29 10:16:31;;;;;;;4.60;1.63;;;;;;;12.90;100.00;99191.97;5065443;28;20066;-87
2023/10/29 10:19:00;;;;;;;9.13;1.90;;;;;;;12.92;100.00;99188.72;5066205;28;20081;-87
2023/10/29 10:21:44;;;;;;;5.93;1.52;;;;;;;13.00;100.00;99198.56;5064299;28;20122;-88
2023/10/29 10:24:10;;;;;;;5.10;1.95;;;;;;;12.99;100.00;99185.78;5063832;28;20024;-88
2023/10/29 10:26:38;;;;;;;2.95;1.17;;;;;;;13.03;100.00;99180.88;5085187;28;20115;-87
2023/10/29 10:29:06;;;;;;;4.15;1.20;;;;;;;12.99;100.00;99194.19;5081972;28;20107;-88
2023/10/29 10:31:33;;;;;;;5.47;1.13;;;;;;;13.03;100.00;99197.72;5066169;28;20023;-87
2023/10/29 10:34:18;;;;;;;4.78;1.38;;;;;;;12.95;100.00;99191.47;5063295;28;20028;-87
2023/10/29 10:36:53;;;;;;;5.15;1.33;;;;;;;13.09;100.00;99190.34;5081671;28;20023;-87
2023/10/29 10:39:22;;;;;;;8.45;1.63;;;;;;;13.10;100.00;99205.97;5064770;28;20503;-88
2023/10/29 10:41:49;;;;;;;4.57;1.30;;;;;;;12.99;100.00;99197.00;5065245;28;20066;-87
2023/10/29 10:44:19;;;;;;;6.85;1.67;;;;;;;13.07;100.00;99204.03;5062947;28;20024;-87
2023/10/29 10:46:51;;;;;;;5.75;1.00;;;;;;;13.00;100.00;99184.53;5057546;28;20034;-88
2023/10/29 10:49:18;;;;;;;5.35;1.63;;;;;;;12.97;100.00;99188.22;5062947;28;20448;-87
2023/10/29 10:51:45;;;;;;;6.70;1.30;;;;;;;13.04;100.00;99185.25;5080093;28;20241;-87
2023/10/29 10:54:11;;;;;;;4.40;1.60;;;;;;;12.99;100.00;99185.78;5086176;28;20035;-88
2023/10/29 10:56:37;;;;;;;5.45;1.50;;;;;;;13.11;100.00;99196.34;5067511;28;20092;-87
2023/10/29 10:59:07;;;;;;;6.88;1.95;;;;;;;13.04;100.00;99209.72;5060748;28;20085;-87
2023/10/29 11:01:38;;;;;;;8.80;1.90;;;;;;;13.10;100.00;99214.41;5066105;28;20058;-87
2023/10/29 11:04:06;;;;;;;4.85;1.40;;;;;;;13.22;100.00;99221.38;5065346;28;20099;-87
2023/10/29 11:06:32;;;;;;;6.30;1.88;;;;;;;13.19;100.00;99208.97;5067083;28;20032;-87
2023/10/29 11:08:59;;;;;;;6.03;1.23;;;;;;;13.21;100.00;99214.94;5062167;28;20489;-87
2023/10/29 11:11:29;;;;;;;5.47;0.95;;;;;;;13.27;100.00;99189.94;5057750;28;20027;-88
2023/10/29 11:14:12;;;;;;;4.00;1.13;;;;;;;13.41;100.00;99194.47;5065179;28;20020;-88
2023/10/29 11:16:57;;;;;;;4.72;1.00;;;;;;;13.48;100.00;99205.50;5062106;28;20027;-88
2023/10/29 11:19:44;;;;;;;3.80;1.38;;;;;;;13.44;100.00;99220.88;5064937;28;20080;-89